Terminal Aerodrome Forecast
Issued by NWS

Home | Current Version | Previous Version | Graphics & Text | Print | Product List | Glossary On
Versions: 1 2 3 4 5 6 7 8 9 10 11 12 13 14 15 16 17 18 19 20
000
FTUS43 KGRB 260841 AAA
TAFATW
TAF AMD
KATW 260841Z 2609/2706 26007KT P6SM SCT050 SCT070
     FM261100 29009KT P6SM BKN050
     FM261400 29011G15KT P6SM VCSH BKN035
     FM261600 31013G17KT P6SM VCSH OVC030
     FM262000 32013G21KT P6SM VCSH BKN035
     FM262300 32010KT P6SM FEW040 BKN100
     FM270100 33006KT P6SM SCT100=

USA.gov is the U.S. government's official web portal to all federal, state and local government web resources and services.